Time;durP1;ratioP1;P1;durP2;ratioP2;P2;SDS_P1;SDS_P2;PMS_P1;PMS_P2;Temp;Humidity;BMP_temperature;BMP_pressure;BME280_temperature;BME280_humidity;BME280_pressure;Samples;Min_cycle;Max_cycle;Signal;HPM_P1;HPM_P2
2021/06/13 00:01:59;;;;;;;;;;;;;;;26.95;49.47;100541.97;4998905;28;807;-33
2021/06/13 00:04:25;;;;;;;;;;;;;;;26.98;49.56;100536.19;4999259;28;764;-32
2021/06/13 00:06:52;;;;;;;;;;;;;;;27.01;49.17;100528.59;4998528;28;1914;-33
2021/06/13 00:09:18;;;;;;;;;;;;;;;26.96;49.75;100536.38;4999312;28;1004;-47
2021/06/13 00:11:43;;;;;;;;;;;;;;;26.93;49.92;100533.22;4998912;28;812;-47
2021/06/13 00:14:09;;;;;;;;;;;;;;;26.96;49.85;100524.78;5000680;28;1155;-31
2021/06/13 00:16:34;;;;;;;;;;;;;;;26.99;50.02;100530.63;5018160;28;868;-34
2021/06/13 00:18:59;;;;;;;;;;;;;;;26.97;49.90;100529.16;5018555;28;804;-34
2021/06/13 00:21:24;;;;;;;;;;;;;;;26.95;50.37;100523.09;5018388;28;864;-47
2021/06/13 00:23:50;;;;;;;;;;;;;;;26.97;50.39;100529.16;5018462;28;757;-33
2021/06/13 00:26:15;;;;;;;;;;;;;;;26.98;50.48;100530.81;5018072;28;804;-32
2021/06/13 00:28:41;;;;;;;;;;;;;;;27.07;50.17;100523.47;5018327;28;1910;-35
2021/06/13 00:31:07;;;;;;;;;;;;;;;26.98;50.44;100526.25;4999685;28;1024;-30
2021/06/13 00:33:32;;;;;;;;;;;;;;;26.99;50.68;100516.31;4998479;28;752;-32
2021/06/13 00:35:58;;;;;;;;;;;;;;;27.00;50.24;100521.50;4998628;28;722;-33
2021/06/13 00:38:23;;;;;;;;;;;;;;;27.01;50.14;100512.41;4998390;28;864;-40
2021/06/13 00:40:48;;;;;;;;;;;;;;;27.01;50.17;100512.41;5031696;28;1318;-50
2021/06/13 00:43:13;;;;;;;;;;;;;;;27.05;50.31;100520.13;5037794;28;823;-32
2021/06/13 00:45:39;;;;;;;;;;;;;;;26.99;50.57;100511.72;5023048;28;955;-33
2021/06/13 00:48:04;;;;;;;;;;;;;;;26.98;50.67;100506.50;5017597;28;1906;-35
2021/06/13 00:50:38;;;;;;;;;;;;;;;27.00;50.49;100509.88;5018008;28;745;-35
2021/06/13 00:53:04;;;;;;;;;;;;;;;27.10;50.10;100510.44;5017937;28;805;-47
2021/06/13 00:55:29;;;;;;;;;;;;;;;27.04;50.74;100513.06;5017265;28;820;-33
2021/06/13 00:57:55;;;;;;;;;;;;;;;27.07;50.53;100505.44;5017678;28;784;-43
2021/06/13 01:00:20;;;;;;;;;;;;;;;27.05;50.49;100507.47;5005734;28;1012;-45
2021/06/13 01:02:46;;;;;;;;;;;;;;;26.99;50.83;100502.81;4997755;28;737;-32
2021/06/13 01:05:11;;;;;;;;;;;;;;;26.95;50.79;100502.34;4998017;28;863;-33
2021/06/13 01:07:45;;;;;;;;;;;;;;;26.99;50.56;100511.72;4997406;28;1903;-42
2021/06/13 01:10:28;;;;;;;;;;;;;;;26.96;50.86;100506.69;4980410;28;808;-35
2021/06/13 01:12:55;;;;;;;;;;;;;;;27.05;50.38;100509.31;4997707;28;705;-48
2021/06/13 01:15:22;;;;;;;;;;;;;;;27.01;50.44;100515.09;4997337;28;1299;-36
2021/06/13 01:17:52;;;;;;;;;;;;;;;26.98;50.77;100515.47;4980202;28;811;-47
2021/06/13 01:20:22;;;;;;;;;;;;;;;26.99;50.59;100514.41;4980054;28;831;-47
2021/06/13 01:22:47;;;;;;;;;;;;;;;27.02;50.97;100515.97;4997566;28;765;-45
2021/06/13 01:25:31;;;;;;;;;;;;;;;27.03;50.99;100512.22;4997760;28;832;-33
2021/06/13 01:27:56;;;;;;;;;;;;;;;26.94;51.07;100508.78;4997475;28;1969;-45
2021/06/13 01:30:23;;;;;;;;;;;;;;;26.98;51.08;100507.34;4997000;28;1048;-38
2021/06/13 01:32:48;;;;;;;;;;;;;;;26.97;50.76;100508.41;4980360;28;808;-31
2021/06/13 01:35:17;;;;;;;;;;;;;;;27.00;50.52;100505.31;4980529;28;769;-33
2021/06/13 01:37:44;;;;;;;;;;;;;;;26.95;50.74;100504.19;4997097;28;725;-33
2021/06/13 01:40:10;;;;;;;;;;;;;;;27.04;50.76;100496.88;5020242;28;1145;-34
2021/06/13 01:42:35;;;;;;;;;;;;;;;27.05;50.60;100495.84;5037025;28;745;-36
2021/06/13 01:45:02;;;;;;;;;;;;;;;27.00;50.69;100496.38;5009733;28;953;-49
2021/06/13 01:47:27;;;;;;;;;;;;;;;26.99;50.81;100502.81;5016674;28;1901;-33
2021/06/13 01:49:53;;;;;;;;;;;;;;;27.04;50.57;100505.81;4999179;28;753;-48
2021/06/13 01:52:19;;;;;;;;;;;;;;;27.11;50.42;100503.19;4999413;28;772;-33
2021/06/13 01:54:44;;;;;;;;;;;;;;;27.06;50.40;100498.34;4999006;28;813;-34
2021/06/13 01:57:09;;;;;;;;;;;;;;;27.02;50.62;100494.34;4998760;28;725;-48
2021/06/13 01:59:36;;;;;;;;;;;;;;;26.96;50.96;100493.22;4993167;28;1008;-47
2021/06/13 02:02:03;;;;;;;;;;;;;;;26.97;50.54;100488.66;4979745;28;1629;-35
2021/06/13 02:04:29;;;;;;;;;;;;;;;27.00;50.83;100490.97;4979886;28;800;-34
2021/06/13 02:06:57;;;;;;;;;;;;;;;26.97;50.96;100485.94;4996587;28;1950;-49
2021/06/13 02:09:22;;;;;;;;;;;;;;;26.98;50.64;100488.47;4996969;28;788;-47
2021/06/13 02:11:48;;;;;;;;;;;;;;;27.05;50.36;100487.72;4979689;28;804;-33
2021/06/13 02:14:13;;;;;;;;;;;;;;;27.04;50.47;100488.78;4979353;28;1305;-44
2021/06/13 02:16:39;;;;;;;;;;;;;;;26.98;50.88;100483.06;4996910;28;733;-48
2021/06/13 02:19:04;;;;;;;;;;;;;;;27.04;50.91;100489.63;4979555;28;860;-31
2021/06/13 02:21:29;;;;;;;;;;;;;;;26.97;50.77;100481.41;4979576;28;784;-48
2021/06/13 02:23:55;;;;;;;;;;;;;;;27.02;51.08;100478.16;4996718;28;815;-48
2021/06/13 02:26:20;;;;;;;;;;;;;;;27.00;51.00;100470.22;4996750;28;814;-34
2021/06/13 02:28:47;;;;;;;;;;;;;;;27.06;50.91;100478.63;4996301;28;1902;-35
2021/06/13 02:31:13;;;;;;;;;;;;;;;27.02;50.75;100478.16;4979580;28;969;-36
2021/06/13 02:33:38;;;;;;;;;;;;;;;27.00;50.70;100483.72;4996590;28;760;-33
2021/06/13 02:36:04;;;;;;;;;;;;;;;27.01;50.95;100482.72;4997013;28;776;-32
2021/06/13 02:38:29;;;;;;;;;;;;;;;26.96;51.22;100482.41;4979583;28;785;-37
2021/06/13 02:40:54;;;;;;;;;;;;;;;26.97;51.09;100484.09;5031728;28;1164;-47
2021/06/13 02:43:20;;;;;;;;;;;;;;;27.05;51.10;100485.03;5018906;28;769;-32
2021/06/13 02:45:45;;;;;;;;;;;;;;;27.04;50.76;100488.78;5020684;28;952;-49
2021/06/13 02:48:10;;;;;;;;;;;;;;;26.95;51.28;100491.53;5015892;28;1906;-32
2021/06/13 02:50:36;;;;;;;;;;;;;;;26.93;51.04;100488.19;5016612;28;793;-45
2021/06/13 02:53:07;;;;;;;;;;;;;;;27.05;50.96;100483.19;5016141;28;860;-30
2021/06/13 02:55:43;;;;;;;;;;;;;;;26.93;51.22;100479.25;5016289;28;921;-46
2021/06/13 02:58:12;;;;;;;;;;;;;;;26.97;51.18;100477.84;4998569;28;784;-33
2021/06/13 03:00:38;;;;;;;;;;;;;;;26.91;50.98;100476.72;5001762;28;988;-33
2021/06/13 03:03:03;;;;;;;;;;;;;;;27.00;50.92;100480.16;4996495;28;756;-48
2021/06/13 03:05:28;;;;;;;;;;;;;;;26.97;50.92;100472.47;4997224;28;804;-40
2021/06/13 03:07:54;;;;;;;;;;;;;;;26.99;51.23;100476.63;4999189;28;1967;-38
2021/06/13 03:10:19;;;;;;;;;;;;;;;26.96;51.00;100478.91;4982864;28;839;-33
2021/06/13 03:12:45;;;;;;;;;;;;;;;27.03;50.90;100474.41;5000220;28;804;-44
2021/06/13 03:15:10;;;;;;;;;;;;;;;26.92;49.72;100480.28;4982222;28;1307;-36
2021/06/13 03:17:36;;;;;;;;;;;;;;;26.42;42.45;100479.00;4982509;28;828;-32
2021/06/13 03:20:02;;;;;;;;;;;;;;;25.89;42.54;100471.72;4982621;28;769;-37
2021/06/13 03:22:27;;;;;;;;;;;;;;;25.56;43.32;100468.22;4999830;28;820;-34
2021/06/13 03:24:52;;;;;;;;;;;;;;;25.44;43.36;100461.59;4982582;28;820;-43
2021/06/13 03:27:18;;;;;;;;;;;;;;;25.41;43.46;100460.06;4982077;28;1969;-32
2021/06/13 03:29:43;;;;;;;;;;;;;;;25.19;43.82;100461.75;4981914;28;1025;-48
2021/06/13 03:32:09;;;;;;;;;;;;;;;25.00;44.20;100463.00;4982296;28;733;-31
2021/06/13 03:34:35;;;;;;;;;;;;;;;24.93;44.45;100458.34;4982735;28;799;-38
2021/06/13 03:37:00;;;;;;;;;;;;;;;24.94;44.66;100461.88;4982052;28;1204;-32
2021/06/13 03:39:26;;;;;;;;;;;;;;;24.82;44.97;100459.50;4993074;28;1126;-34
2021/06/13 03:41:52;;;;;;;;;;;;;;;24.52;45.26;100455.75;5021309;28;733;-31
2021/06/13 03:44:18;;;;;;;;;;;;;;;24.02;46.87;100451.31;5034952;28;963;-31
2021/06/13 03:46:43;;;;;;;;;;;;;;;24.09;46.54;100452.28;5019088;28;1906;-33
2021/06/13 03:49:10;;;;;;;;;;;;;;;24.04;46.82;100446.56;5001640;28;846;-32
2021/06/13 03:51:35;;;;;;;;;;;;;;;24.07;46.64;100443.53;5018811;28;845;-33
2021/06/13 03:54:00;;;;;;;;;;;;;;;23.90;46.92;100444.56;5001792;28;812;-32
2021/06/13 03:56:27;;;;;;;;;;;;;;;23.90;47.05;100437.38;5012243;28;1293;-42
2021/06/13 03:58:53;;;;;;;;;;;;;;;24.28;46.60;100444.06;4986852;28;812;-36
2021/06/13 04:01:19;;;;;;;;;;;;;;;24.42;46.27;100434.44;5001841;28;1375;-37
2021/06/13 04:03:50;;;;;;;;;;;;;;;24.42;46.16;100437.16;4999160;28;769;-33
2021/06/13 04:06:16;;;;;;;;;;;;;;;24.58;46.04;100437.09;4997813;28;840;-34
2021/06/13 04:08:41;;;;;;;;;;;;;;;24.82;46.22;100438.00;4997933;28;1899;-33
2021/06/13 04:11:06;;;;;;;;;;;;;;;24.74;45.77;100435.34;4997672;28;844;-32
2021/06/13 04:13:32;;;;;;;;;;;;;;;24.74;45.66;100434.50;4998652;28;1174;-31
2021/06/13 04:15:58;;;;;;;;;;;;;;;24.67;45.88;100440.56;4998727;28;929;-32
2021/06/13 04:18:23;;;;;;;;;;;;;;;24.75;45.47;100430.81;4980826;28;753;-49
2021/06/13 04:20:49;;;;;;;;;;;;;;;24.75;45.57;100423.56;4981174;28;864;-31
2021/06/13 04:23:14;;;;;;;;;;;;;;;24.81;45.61;100427.41;4998895;28;768;-49
2021/06/13 04:25:39;;;;;;;;;;;;;;;24.73;45.86;100425.59;4998292;28;884;-33
2021/06/13 04:28:05;;;;;;;;;;;;;;;24.89;45.39;100437.31;4998716;28;1911;-49
2021/06/13 04:30:31;;;;;;;;;;;;;;;24.87;45.65;100433.94;4981110;28;1028;-32
2021/06/13 04:32:56;;;;;;;;;;;;;;;24.92;45.56;100432.41;4998541;28;744;-32
2021/06/13 04:35:21;;;;;;;;;;;;;;;24.91;45.57;100425.38;4998263;28;844;-39
2021/06/13 04:37:47;;;;;;;;;;;;;;;24.93;45.78;100427.88;4998234;28;801;-32
2021/06/13 04:40:12;;;;;;;;;;;;;;;24.85;46.07;100435.97;5021892;28;1177;-36
2021/06/13 04:42:37;;;;;;;;;;;;;;;25.02;45.68;100432.22;5037785;28;820;-32
2021/06/13 04:45:09;;;;;;;;;;;;;;;25.16;45.48;100430.63;5028159;28;1019;-44
2021/06/13 04:47:37;;;;;;;;;;;;;;;25.25;45.19;100430.56;5018025;28;1926;-33
2021/06/13 04:50:05;;;;;;;;;;;;;;;25.31;45.13;100428.00;5017334;28;772;-32
2021/06/13 04:52:31;;;;;;;;;;;;;;;25.30;45.41;100428.19;5018296;28;784;-32
2021/06/13 04:55:14;;;;;;;;;;;;;;;25.38;45.24;100422.75;5017764;28;729;-32
2021/06/13 04:57:39;;;;;;;;;;;;;;;25.39;45.13;100421.72;5017883;28;844;-32
2021/06/13 05:00:05;;;;;;;;;;;;;;;25.51;45.17;100422.13;5007752;28;973;-32
2021/06/13 05:02:30;;;;;;;;;;;;;;;25.47;45.23;100428.91;4997967;28;739;-31
2021/06/13 05:04:55;;;;;;;;;;;;;;;25.58;45.11;100426.78;4998402;28;899;-31
2021/06/13 05:07:21;;;;;;;;;;;;;;;25.53;45.22;100421.97;4998079;28;1898;-32
2021/06/13 05:09:47;;;;;;;;;;;;;;;25.49;45.56;100431.44;4997715;28;732;-31
2021/06/13 05:12:12;;;;;;;;;;;;;;;25.50;45.42;100433.09;4998272;28;803;-31
2021/06/13 05:14:38;;;;;;;;;;;;;;;25.63;45.32;100425.28;4996992;28;1103;-33
2021/06/13 05:17:04;;;;;;;;;;;;;;;25.67;45.29;100413.09;4997892;28;851;-45
2021/06/13 05:19:29;;;;;;;;;;;;;;;25.63;45.46;100419.03;4997760;28;827;-31
2021/06/13 05:21:54;;;;;;;;;;;;;;;25.62;45.77;100420.03;4997631;28;760;-52
2021/06/13 05:24:19;;;;;;;;;;;;;;;25.65;45.74;100420.56;4997823;28;831;-51
2021/06/13 05:26:45;;;;;;;;;;;;;;;25.63;45.85;100411.81;4997665;28;1918;-51
2021/06/13 05:29:10;;;;;;;;;;;;;;;25.63;45.79;100421.75;4997095;28;1024;-33
2021/06/13 05:31:35;;;;;;;;;;;;;;;25.66;45.72;100414.13;4996658;28;819;-33
2021/06/13 05:34:00;;;;;;;;;;;;;;;25.74;45.57;100421.31;4997879;28;860;-32
2021/06/13 05:36:26;;;;;;;;;;;;;;;25.82;45.83;100416.88;4997307;28;816;-33
2021/06/13 05:38:51;;;;;;;;;;;;;;;25.79;45.95;100416.22;4998795;28;1109;-38
2021/06/13 05:41:16;;;;;;;;;;;;;;;25.72;46.02;100422.53;5036430;28;804;-33
2021/06/13 05:43:42;;;;;;;;;;;;;;;25.79;45.57;100421.59;5036567;28;799;-33
2021/06/13 05:46:07;;;;;;;;;;;;;;;25.87;45.31;100411.78;5018244;28;1017;-33
2021/06/13 05:48:33;;;;;;;;;;;;;;;25.95;45.39;100410.84;5016867;28;1910;-35
2021/06/13 05:50:59;;;;;;;;;;;;;;;25.84;45.64;100412.97;5016562;28;826;-44
2021/06/13 05:53:24;;;;;;;;;;;;;;;25.94;45.53;100409.19;5017000;28;749;-58
2021/06/13 05:55:49;;;;;;;;;;;;;;;25.92;45.82;100403.97;5016892;28;800;-32
2021/06/13 05:58:15;;;;;;;;;;;;;;;26.00;45.54;100406.59;5016866;28;824;-52
2021/06/13 06:00:40;;;;;;;;;;;;;;;25.82;45.19;100403.41;5001818;28;1000;-32
2021/06/13 06:03:06;;;;;;;;;;;;;;;25.59;46.12;100393.47;5011786;28;1547;-43
2021/06/13 06:05:32;;;;;;;;;;;;;;;26.06;45.56;100399.63;5016677;28;760;-32
2021/06/13 06:07:57;;;;;;;;;;;;;;;26.04;45.42;100394.41;5017006;28;1966;-33
2021/06/13 06:10:23;;;;;;;;;;;;;;;26.02;45.67;100391.09;5016321;28;935;-32
2021/06/13 06:12:48;;;;;;;;;;;;;;;25.99;45.55;100402.22;5016476;28;827;-33
2021/06/13 06:15:14;;;;;;;;;;;;;;;25.54;45.97;100392.16;5005544;28;1109;-36
2021/06/13 06:17:40;;;;;;;;;;;;;;;25.38;46.69;100397.66;4996728;28;792;-34
2021/06/13 06:20:06;;;;;;;;;;;;;;;25.29;47.11;100403.09;4997386;28;749;-34
2021/06/13 06:22:31;;;;;;;;;;;;;;;25.36;47.11;100394.34;4997147;28;733;-33
2021/06/13 06:24:57;;;;;;;;;;;;;;;25.39;47.05;100391.28;4996859;28;804;-33
2021/06/13 06:27:22;;;;;;;;;;;;;;;25.45;47.31;100395.94;4997073;28;1915;-33
2021/06/13 06:29:47;;;;;;;;;;;;;;;25.52;47.16;100393.38;4996851;28;1023;-33
2021/06/13 06:32:13;;;;;;;;;;;;;;;25.50;47.31;100390.00;4996558;28;748;-34
2021/06/13 06:34:39;;;;;;;;;;;;;;;25.48;47.32;100392.88;4996941;28;862;-34
2021/06/13 06:37:04;;;;;;;;;;;;;;;25.52;47.67;100388.81;4996943;28;785;-33
2021/06/13 06:39:29;;;;;;;;;;;;;;;25.56;46.59;100384.72;5008683;28;1164;-34
2021/06/13 06:41:55;;;;;;;;;;;;;;;25.59;47.41;100374.63;5037270;28;501;-34
2021/06/13 06:44:20;;;;;;;;;;;;;;;25.55;47.61;100379.53;5036223;28;959;-34
2021/06/13 06:46:45;;;;;;;;;;;;;;;25.57;47.45;100382.88;5019678;28;1910;-34
2021/06/13 06:49:10;;;;;;;;;;;;;;;25.66;47.59;100375.56;5020206;28;887;-34
2021/06/13 06:51:36;;;;;;;;;;;;;;;25.61;47.44;100376.09;5020086;28;748;-34
2021/06/13 06:54:01;;;;;;;;;;;;;;;25.66;47.58;100370.19;5019710;28;820;-34
2021/06/13 06:56:27;;;;;;;;;;;;;;;25.71;47.66;100372.38;5019788;28;796;-34
2021/06/13 06:58:52;;;;;;;;;;;;;;;25.75;47.79;100365.56;5020249;28;768;-34
2021/06/13 07:01:17;;;;;;;;;;;;;;;25.82;47.30;100368.38;5000004;28;949;-34
2021/06/13 07:03:43;;;;;;;;;;;;;;;25.82;47.13;100361.13;5000651;28;745;-34
2021/06/13 07:06:08;;;;;;;;;;;;;;;25.89;47.37;100362.06;5000290;28;871;-34
2021/06/13 07:08:33;;;;;;;;;;;;;;;25.86;47.21;100359.72;5000318;28;1961;-34
2021/06/13 07:10:58;;;;;;;;;;;;;;;25.90;47.03;100358.34;5000400;28;1024;-34
2021/06/13 07:13:24;;;;;;;;;;;;;;;25.91;47.23;100356.47;4999766;28;1221;-34
2021/06/13 07:15:49;;;;;;;;;;;;;;;25.97;47.12;100353.06;4982310;28;1573;-34
2021/06/13 07:18:14;;;;;;;;;;;;;;;26.05;46.95;100349.44;5000043;28;824;-34
2021/06/13 07:20:40;;;;;;;;;;;;;;;26.04;46.58;100356.69;4999701;28;847;-33
2021/06/13 07:23:05;;;;;;;;;;;;;;;26.08;46.93;100353.59;4999767;28;752;-34
2021/06/13 07:25:30;;;;;;;;;;;;;;;26.18;46.66;100348.78;5000026;28;796;-34
2021/06/13 07:27:56;;;;;;;;;;;;;;;26.19;46.94;100355.88;4999649;28;1914;-33
2021/06/13 07:30:21;;;;;;;;;;;;;;;26.12;47.35;100346.84;4999898;28;961;-34
2021/06/13 07:32:47;;;;;;;;;;;;;;;26.26;46.95;100350.53;4999622;28;817;-35
2021/06/13 07:35:12;;;;;;;;;;;;;;;26.13;46.99;100343.94;4999756;28;797;-34
2021/06/13 07:37:37;;;;;;;;;;;;;;;26.22;46.43;100343.84;4999638;28;796;-34
2021/06/13 07:40:03;;;;;;;;;;;;;;;26.21;45.94;100345.72;5020753;28;1157;-33
2021/06/13 07:42:28;;;;;;;;;;;;;;;26.32;45.98;100328.25;5038799;28;775;-34
2021/06/13 07:44:54;;;;;;;;;;;;;;;26.37;45.54;100333.09;5030314;28;1018;-34
2021/06/13 07:47:19;;;;;;;;;;;;;;;26.34;44.88;100334.28;5019156;28;1898;-33
2021/06/13 07:49:45;;;;;;;;;;;;;;;26.38;44.49;100323.97;5001661;28;757;-33
2021/06/13 07:52:11;;;;;;;;;;;;;;;26.46;45.06;100334.66;5018936;28;863;-34
2021/06/13 07:54:36;;;;;;;;;;;;;;;26.41;45.03;100326.28;5017721;28;875;-50
2021/06/13 07:57:02;;;;;;;;;;;;;;;26.46;44.89;100323.88;5018772;28;834;-34
2021/06/13 07:59:27;;;;;;;;;;;;;;;26.59;44.67;100319.66;4996493;28;1317;-34
2021/06/13 08:01:52;;;;;;;;;;;;;;;26.52;44.47;100323.13;4999362;28;806;-34
2021/06/13 08:04:17;;;;;;;;;;;;;;;26.63;44.66;100320.94;4998912;28;867;-34
2021/06/13 08:06:43;;;;;;;;;;;;;;;26.65;44.34;100322.44;4981580;28;1906;-34
2021/06/13 08:09:08;;;;;;;;;;;;;;;26.84;44.20;100317.41;4999346;28;827;-34
2021/06/13 08:11:33;;;;;;;;;;;;;;;26.75;43.63;100319.44;4999022;28;760;-34
2021/06/13 08:13:59;;;;;;;;;;;;;;;26.71;44.34;100317.31;4998735;28;1230;-34
2021/06/13 08:16:24;;;;;;;;;;;;;;;26.84;43.85;100316.59;4998882;28;773;-34
2021/06/13 08:18:49;;;;;;;;;;;;;;;26.93;44.23;100311.91;4999116;28;871;-34
2021/06/13 08:21:14;;;;;;;;;;;;;;;26.86;43.90;100314.56;4998719;28;836;-34
2021/06/13 08:23:40;;;;;;;;;;;;;;;26.86;44.21;100312.69;4998327;28;546;-34
2021/06/13 08:26:05;;;;;;;;;;;;;;;27.00;43.58;100308.25;4998489;28;808;-34
2021/06/13 08:28:30;;;;;;;;;;;;;;;27.01;43.57;100304.56;4998689;28;1979;-36
2021/06/13 08:30:55;;;;;;;;;;;;;;;27.00;43.67;100304.72;4998369;28;1074;-34
2021/06/13 08:33:21;;;;;;;;;;;;;;;27.19;43.54;100300.56;4980491;28;787;-36
2021/06/13 08:35:46;;;;;;;;;;;;;;;27.10;44.04;100299.88;4999030;28;729;-35
2021/06/13 08:38:11;;;;;;;;;;;;;;;27.14;44.11;100297.63;4998424;28;764;-45
2021/06/13 08:40:37;;;;;;;;;;;;;;;27.29;43.56;100294.84;5028851;28;1117;-34
2021/06/13 08:43:02;;;;;;;;;;;;;;;27.26;43.53;100298.75;5037717;28;831;-34
2021/06/13 08:45:28;;;;;;;;;;;;;;;27.21;43.62;100297.69;5024553;28;980;-34
2021/06/13 08:47:54;;;;;;;;;;;;;;;27.42;43.35;100285.16;5017888;28;1994;-34
2021/06/13 08:50:20;;;;;;;;;;;;;;;27.38;43.35;100288.25;5017995;28;917;-34
2021/06/13 08:52:48;;;;;;;;;;;;;;;27.45;44.08;100274.78;5017777;28;748;-34
2021/06/13 08:55:14;;;;;;;;;;;;;;;27.42;43.22;100279.75;5017740;28;757;-34
2021/06/13 08:57:39;;;;;;;;;;;;;;;27.43;43.60;100284.94;5017789;28;827;-35
2021/06/13 09:00:06;;;;;;;;;;;;;;;27.50;43.33;100282.31;5007514;28;1012;-40
2021/06/13 09:02:31;;;;;;;;;;;;;;;27.40;43.17;100277.25;4998089;28;753;-35
2021/06/13 09:04:57;;;;;;;;;;;;;;;27.54;42.74;100270.09;4980178;28;809;-48
2021/06/13 09:07:23;;;;;;;;;;;;;;;27.54;42.94;100270.09;4997735;28;1887;-36
2021/06/13 09:09:49;;;;;;;;;;;;;;;27.42;43.08;100264.38;4997716;28;800;-37
2021/06/13 09:12:14;;;;;;;;;;;;;;;27.35;42.95;100260.78;4998012;28;808;-49
2021/06/13 09:14:40;;;;;;;;;;;;;;;27.46;42.33;100262.94;4996854;28;1142;-36
2021/06/13 09:17:21;;;;;;;;;;;;;;;27.57;41.94;100261.59;4997979;28;757;-34
2021/06/13 09:20:03;;;;;;;;;;;;;;;27.49;42.26;100240.94;4998049;28;764;-35
2021/06/13 09:22:28;;;;;;;;;;;;;;;27.60;42.36;100238.72;4997795;28;772;-35
2021/06/13 09:25:10;;;;;;;;;;;;;;;27.61;42.25;100241.22;4997584;28;745;-36
2021/06/13 09:27:36;;;;;;;;;;;;;;;27.77;41.78;100238.44;4997328;28;1918;-37
2021/06/13 09:30:03;;;;;;;;;;;;;;;27.64;42.12;100237.31;5006816;28;977;-35
2021/06/13 09:32:28;;;;;;;;;;;;;;;27.50;41.84;100241.78;5017531;28;968;-36
2021/06/13 09:35:12;;;;;;;;;;;;;;;27.75;41.65;100233.22;5016852;28;744;-36
2021/06/13 09:37:40;;;;;;;;;;;;;;;27.81;41.34;100237.81;5017199;28;848;-36
2021/06/13 09:40:09;;;;;;;;;;;;;;;27.82;41.41;100235.97;5010644;28;1157;-36
2021/06/13 09:42:36;;;;;;;;;;;;;;;27.75;41.69;100230.53;5036633;28;753;-35
2021/06/13 09:45:01;;;;;;;;;;;;;;;27.80;41.71;100233.47;5016866;28;861;-34
2021/06/13 09:47:29;;;;;;;;;;;;;;;28.02;41.23;100225.25;4997353;28;1903;-34
2021/06/13 09:49:55;;;;;;;;;;;;;;;28.11;40.67;100226.72;4979863;28;844;-36
2021/06/13 09:52:26;;;;;;;;;;;;;;;28.32;40.56;100224.94;4997372;28;911;-35
2021/06/13 09:55:09;;;;;;;;;;;;;;;28.30;40.53;100226.16;4997039;28;741;-37
2021/06/13 09:57:35;;;;;;;;;;;;;;;28.19;40.12;100219.47;4997077;28;832;-36
2021/06/13 10:00:20;;;;;;;;;;;;;;;28.07;40.45;100224.63;4979341;28;1289;-36
2021/06/13 10:02:46;;;;;;;;;;;;;;;27.99;40.29;100215.66;4996894;28;1459;-36
2021/06/13 10:05:12;;;;;;;;;;;;;;;28.22;39.99;100219.06;4996660;28;859;-35
2021/06/13 10:07:37;;;;;;;;;;;;;;;28.08;40.11;100220.88;4996992;28;1975;-32
2021/06/13 10:10:03;;;;;;;;;;;;;;;28.31;39.91;100212.44;4997145;28;781;-33
2021/06/13 10:12:28;;;;;;;;;;;;;;;28.29;39.99;100214.53;4997034;28;821;-35
2021/06/13 10:14:53;;;;;;;;;;;;;;;28.17;39.67;100214.28;4996309;28;1061;-36
2021/06/13 10:17:29;;;;;;;;;;;;;;;28.14;39.24;100211.13;5001429;28;747;-34
2021/06/13 10:19:54;;;;;;;;;;;;;;;28.17;39.11;100205.31;5003552;28;836;-35
2021/06/13 10:22:19;;;;;;;;;;;;;;;28.31;39.23;100217.84;5003665;28;768;-34
2021/06/13 10:24:47;;;;;;;;;;;;;;;28.16;39.10;100218.00;5003225;28;737;-35
2021/06/13 10:27:13;;;;;;;;;;;;;;;28.16;39.56;100201.78;5003352;28;1973;-35
2021/06/13 10:29:39;;;;;;;;;;;;;;;28.15;39.51;100204.69;5003216;28;1027;-33
2021/06/13 10:32:05;;;;;;;;;;;;;;;28.23;38.83;100201.78;5003313;28;832;-36
2021/06/13 10:34:30;;;;;;;;;;;;;;;28.33;38.90;100201.44;5003648;28;856;-32
2021/06/13 10:36:56;;;;;;;;;;;;;;;28.42;38.81;100197.50;5003293;28;784;-30
2021/06/13 10:39:23;;;;;;;;;;;;;;;28.39;39.07;100191.69;5013112;28;1082;-31
2021/06/13 10:41:48;;;;;;;;;;;;;;;28.54;38.87;100188.78;5042748;28;863;-35
2021/06/13 10:44:17;;;;;;;;;;;;;;;28.71;38.68;100181.91;5039677;28;1007;-36
2021/06/13 10:46:44;;;;;;;;;;;;;;;28.49;38.56;100189.41;5022602;28;763;-35
2021/06/13 10:49:26;;;;;;;;;;;;;;;28.53;38.88;100179.81;5022827;28;1906;-34
2021/06/13 10:52:02;;;;;;;;;;;;;;;28.58;38.87;100165.66;5022927;28;769;-36
2021/06/13 10:54:28;;;;;;;;;;;;;;;28.68;38.55;100159.84;5022647;28;757;-34
2021/06/13 10:56:55;;;;;;;;;;;;;;;28.56;38.90;100162.38;5022758;28;808;-35
2021/06/13 10:59:21;;;;;;;;;;;;;;;28.62;38.68;100153.41;5019052;28;992;-35
2021/06/13 11:02:11;;;;;;;;;;;;;;;28.54;38.93;100143.63;5002706;28;904;-35
2021/06/13 11:04:43;;;;;;;;;;;;;;;28.75;38.34;100122.78;5003170;28;840;-32
2021/06/13 11:07:09;;;;;;;;;;;;;;;28.64;38.59;100131.56;5002539;28;1899;-33
2021/06/13 11:09:54;;;;;;;;;;;;;;;28.85;38.16;100125.91;5002979;28;745;-36
2021/06/13 11:12:38;;;;;;;;;;;;;;;28.86;38.13;100121.34;5002752;28;1471;-34
2021/06/13 11:15:04;;;;;;;;;;;;;;;28.82;38.05;100111.97;5002329;28;1281;-36
2021/06/13 11:17:48;;;;;;;;;;;;;;;28.90;38.16;100113.59;4985294;28;762;-36
2021/06/13 11:20:34;;;;;;;;;;;;;;;28.74;37.99;100104.91;5003149;28;887;-34
2021/06/13 11:23:00;;;;;;;;;;;;;;;28.76;38.58;100093.88;5002837;28;799;-34
2021/06/13 11:25:26;;;;;;;;;;;;;;;28.75;38.03;100092.19;5003071;28;757;-30
2021/06/13 11:28:10;;;;;;;;;;;;;;;28.72;38.20;100088.03;5001792;28;1918;-31
2021/06/13 11:30:39;;;;;;;;;;;;;;;28.73;38.34;100084.28;4999420;28;969;-36
2021/06/13 11:33:05;;;;;;;;;;;;;;;28.69;38.65;100070.34;4999473;28;804;-33
2021/06/13 11:35:31;;;;;;;;;;;;;;;28.70;38.84;100066.59;4999872;28;840;-31
2021/06/13 11:38:16;;;;;;;;;;;;;;;28.79;38.42;100067.22;4999318;28;844;-33
2021/06/13 11:40:48;;;;;;;;;;;;;;;28.60;39.35;100061.63;5011757;28;1241;-35
2021/06/13 11:43:14;;;;;;;;;;;;;;;28.57;38.99;100066.59;5019111;28;781;-36
2021/06/13 11:45:56;;;;;;;;;;;;;;;28.53;39.09;100060.78;5004491;28;973;-36
2021/06/13 11:48:23;;;;;;;;;;;;;;;28.73;38.69;100058.06;4998918;28;1973;-35
2021/06/13 11:51:03;;;;;;;;;;;;;;;28.64;38.61;100050.38;4999360;28;868;-33
2021/06/13 11:53:47;;;;;;;;;;;;;;;28.68;38.60;100046.19;4999650;28;862;-36
2021/06/13 11:56:31;;;;;;;;;;;;;;;28.63;38.66;100046.81;4999243;28;844;-35
2021/06/13 11:59:06;;;;;;;;;;;;;;;28.70;38.43;100039.53;4998833;28;957;-31
2021/06/13 12:01:36;;;;;;;;;;;;;;;28.72;38.51;100039.31;4999485;28;777;-39
2021/06/13 12:04:04;;;;;;;;;;;;;;;28.45;38.80;100037.47;4998898;28;845;-34
2021/06/13 12:06:30;;;;;;;;;;;;;;;28.66;38.66;100038.28;4998885;28;780;-34
2021/06/13 12:08:55;;;;;;;;;;;;;;;28.40;39.44;100066.19;4998975;28;1910;-33
2021/06/13 12:11:28;;;;;;;;;;;;;;;27.69;39.89;100069.22;4981356;28;814;-33
2021/06/13 12:13:53;;;;;;;;;;;;;;;27.42;43.27;100091.53;4998558;28;1170;-34
2021/06/13 12:16:18;;;;;;;;;;;;;;;27.81;41.80;100085.66;4998815;28;965;-34
2021/06/13 12:19:03;;;;;;;;;;;;;;;27.74;40.35;100051.31;4998433;28;800;-34
2021/06/13 12:21:29;;;;;;;;;;;;;;;27.90;40.16;100045.75;4998878;28;717;-33
2021/06/13 12:24:01;;;;;;;;;;;;;;;27.92;40.59;100095.03;4998842;28;811;-33
2021/06/13 12:29:26;;;;;;;;;;;;;;;27.68;41.27;100068.38;4997995;28;1021;-33
2021/06/13 12:31:51;;;;;;;;;;;;;;;27.70;41.65;100077.09;4998674;28;823;-34
2021/06/13 12:34:20;;;;;;;;;;;;;;;27.69;42.14;100096.22;4998343;28;965;-33
2021/06/13 12:36:52;;;;;;;;;;;;;;;27.78;41.75;100100.41;4998847;28;815;-33
2021/06/13 12:39:29;;;;;;;;;;;;;;;27.72;41.92;100122.84;5006660;28;1142;-33
2021/06/13 12:42:10;;;;;;;;;;;;;;;27.74;41.85;100132.41;5038088;28;736;-33
2021/06/13 12:44:36;;;;;;;;;;;;;;;27.67;42.03;100127.97;5032288;28;960;-45
2021/06/13 12:47:02;;;;;;;;;;;;;;;27.72;42.01;100157.97;5017751;28;1902;-33
2021/06/13 12:49:43;;;;;;;;;;;;;;;27.74;41.54;100191.84;5017809;28;799;-36
2021/06/13 12:52:15;;;;;;;;;;;;;;;27.60;41.98;100196.34;5018082;28;848;-33
2021/06/13 12:54:41;;;;;;;;;;;;;;;27.69;42.12;100215.97;5017894;28;715;-34
2021/06/13 12:57:06;;;;;;;;;;;;;;;27.73;41.95;100211.81;5017407;28;819;-34